Accueil
METAR-TAF:

METAR-TAF

Aéroports :

Aéroport international Modibo Keïta

Bamako, Mali

latitude: 12-32N, longitude: 007-57W, altitude: 380 m

Observation

Le bulletin a été fait il y a 25 minutes, à 12:30 UTC
Vent 7 kt de nord, variant entre nord-ouest et est/nord-est
Température 39°C
Humidité 12%
Pression 1011 hPa
Visibilité 10 km ou plus
pas de nuages en-dessous de 1500 mètres et pas de cumulonimbus.

METAR: GABS 231230Z 36007KT 310V060 CAVOK 39/04 Q1011 NOSIG

Heure: 12:55 (12:55 UTC)

Prévision

Le bulletin a été fait il y a 1 heure et 25 minutes, à 11:30 UTC
Prévision valable du 23 à 12 UTC au 24 à 18 UTC
Vent 6 kt de ouest/nord-ouest
Visibilité 10 km ou plus
pas de nuages en-dessous de 1500 mètres et pas de cumulonimbus.

TAF: GABS 231130Z 2312/2418 29006KT CAVOK

Observations et prévisions météorologiques de plus de 4000 aéroports (messages METAR et TAF).

Les stations disponibles sont représentées par des disques jaunes et rouges sur la carte.

Passer la souris dessus pour voir le nom de la station.

Cliquer dessus pour voir les observations et prévisions météorologiques.

Pour changer de carte: cliquez sur les boutons verts avec une croix noire pour zoomer, sur le bouton vert avec un tiret pour effectuer un zoom arrière, ou sur les flèches vertes pour les cartes adjacentes.


METAR-TAF: